createdAt,value
2023-02-11T00:01:09.954Z,42.40
2023-02-11T00:03:37.392Z,45.97
2023-02-11T00:06:05.804Z,45.13
2023-02-11T00:08:32.942Z,49.28
2023-02-11T00:11:00.027Z,50.13
2023-02-11T00:13:27.660Z,45.78
2023-02-11T00:15:55.057Z,47.33
2023-02-11T00:18:22.420Z,59.60
2023-02-11T00:20:49.544Z,53.13
2023-02-11T00:23:16.893Z,50.67
2023-02-11T00:25:45.299Z,52.45
2023-02-11T00:28:12.567Z,50.78
2023-02-11T00:30:39.882Z,47.03
2023-02-11T00:33:07.053Z,48.55
2023-02-11T00:35:34.200Z,46.95
2023-02-11T00:38:01.371Z,48.80
2023-02-11T00:40:28.507Z,46.33
2023-02-11T00:42:55.688Z,45.67
2023-02-11T00:45:22.763Z,42.47
2023-02-11T00:47:49.840Z,44.67
2023-02-11T00:50:16.923Z,38.72
2023-02-11T00:52:44.097Z,42.00
2023-02-11T00:55:11.204Z,40.05
2023-02-11T00:57:38.408Z,43.72
2023-02-11T01:00:05.821Z,42.15
2023-02-11T01:02:33.381Z,44.50
2023-02-11T01:05:00.863Z,45.83
2023-02-11T01:07:28.504Z,45.63
2023-02-11T01:09:55.660Z,46.78
2023-02-11T01:12:22.936Z,44.45
2023-02-11T01:14:50.052Z,48.22
2023-02-11T01:17:17.236Z,49.22
2023-02-11T01:19:44.427Z,45.20
2023-02-11T01:22:11.501Z,48.53
2023-02-11T01:24:38.636Z,43.15
2023-02-11T01:27:05.756Z,48.40
2023-02-11T01:29:33.109Z,47.70
2023-02-11T01:32:01.292Z,42.85
2023-02-11T01:34:28.733Z,43.53
2023-02-11T01:36:59.224Z,46.17
2023-02-11T01:39:26.999Z,44.90
2023-02-11T01:41:54.360Z,39.67
2023-02-11T01:44:29.562Z,44.58
2023-02-11T01:46:56.716Z,44.85
2023-02-11T01:49:45.205Z,43.20
2023-02-11T01:52:12.318Z,44.78
2023-02-11T01:55:00.948Z,42.63
2023-02-11T01:57:29.836Z,43.97
2023-02-11T02:00:08.839Z,44.53
2023-02-11T02:02:45.009Z,42.58
2023-02-11T02:05:30.595Z,47.97
2023-02-11T02:07:57.670Z,46.95
2023-02-11T02:10:26.361Z,48.78
2023-02-11T02:12:53.573Z,49.50
2023-02-11T02:15:25.718Z,42.67
2023-02-11T02:17:56.784Z,43.88
2023-02-11T02:20:27.103Z,47.58
2023-02-11T02:23:08.584Z,43.50
2023-02-11T02:25:41.480Z,49.65
2023-02-11T02:28:18.138Z,43.88
2023-02-11T02:31:00.118Z,44.25
2023-02-11T02:33:39.663Z,43.42
2023-02-11T02:36:07.285Z,46.30
2023-02-11T02:38:37.497Z,46.88
2023-02-11T02:41:04.885Z,54.10
2023-02-11T02:43:32.031Z,49.33
2023-02-11T02:46:10.818Z,49.92
2023-02-11T02:48:38.149Z,56.58
2023-02-11T02:51:05.289Z,57.00
2023-02-11T02:53:45.153Z,51.78
2023-02-11T02:56:21.638Z,49.58
2023-02-11T02:58:54.930Z,51.75
2023-02-11T03:01:28.904Z,46.47
2023-02-11T03:04:15.153Z,44.67
2023-02-11T03:07:01.166Z,51.88
2023-02-11T03:09:34.505Z,46.63
2023-02-11T03:12:02.729Z,43.38
2023-02-11T03:14:31.022Z,41.92
2023-02-11T03:16:59.410Z,46.95
2023-02-11T03:19:52.813Z,43.35
2023-02-11T03:22:22.721Z,48.28
2023-02-11T03:24:49.917Z,45.30
2023-02-11T03:27:29.430Z,46.70
2023-02-11T03:30:01.897Z,40.95
2023-02-11T03:34:58.768Z,44.97
2023-02-11T03:37:32.662Z,47.03
2023-02-11T03:40:09.171Z,48.50
2023-02-11T03:42:42.232Z,50.70
2023-02-11T03:45:11.337Z,51.33
2023-02-11T03:47:40.550Z,47.17
2023-02-11T03:50:09.636Z,38.17
2023-02-11T03:52:37.734Z,44.75
2023-02-11T03:55:08.742Z,47.47
2023-02-11T03:57:35.869Z,50.95
2023-02-11T04:00:02.997Z,42.63
2023-02-11T04:02:32.146Z,45.60
2023-02-11T04:04:59.316Z,40.85
2023-02-11T04:07:26.754Z,42.72
2023-02-11T04:09:54.112Z,40.97
2023-02-11T04:12:21.643Z,45.95
2023-02-11T04:14:48.744Z,49.83
2023-02-11T04:17:15.873Z,45.88
2023-02-11T04:19:42.988Z,49.67
2023-02-11T04:22:10.219Z,50.97
2023-02-11T04:24:37.322Z,40.90
2023-02-11T04:27:04.506Z,47.42
2023-02-11T04:29:32.063Z,43.85
2023-02-11T04:31:59.262Z,44.88
2023-02-11T04:34:26.465Z,44.63
2023-02-11T04:36:53.680Z,43.47
2023-02-11T04:39:20.778Z,53.50
2023-02-11T04:41:47.899Z,51.22
2023-02-11T04:44:15.044Z,44.40
2023-02-11T04:46:42.365Z,45.80
2023-02-11T04:49:11.977Z,43.67
2023-02-11T04:51:39.054Z,50.65
2023-02-11T04:54:06.176Z,46.40
2023-02-11T04:56:33.304Z,46.63
2023-02-11T04:59:00.423Z,44.55
2023-02-11T05:01:27.627Z,41.28
2023-02-11T05:03:54.717Z,48.03
2023-02-11T05:06:21.832Z,44.90
2023-02-11T05:08:49.261Z,43.30
2023-02-11T05:11:18.010Z,48.05
2023-02-11T05:13:45.271Z,45.63
2023-02-11T05:16:12.734Z,42.75
2023-02-11T05:18:40.482Z,46.58
2023-02-11T05:21:11.363Z,41.00
2023-02-11T05:23:39.176Z,45.45
2023-02-11T05:26:06.284Z,41.40
2023-02-11T05:28:33.527Z,43.20
2023-02-11T05:31:00.790Z,49.78
2023-02-11T05:33:27.927Z,41.63
2023-02-11T05:36:13.976Z,42.72
2023-02-11T05:38:42.559Z,43.65
2023-02-11T05:41:10.448Z,40.95
2023-02-11T05:43:37.629Z,38.97
2023-02-11T05:46:05.318Z,40.45
2023-02-11T05:48:32.502Z,42.83
2023-02-11T05:50:59.577Z,40.38
2023-02-11T05:53:26.758Z,43.95
2023-02-11T05:55:53.818Z,47.78
2023-02-11T05:58:20.907Z,46.00
2023-02-11T06:00:48.105Z,41.28
2023-02-11T06:03:15.397Z,38.63
2023-02-11T06:05:43.565Z,43.65
2023-02-11T06:08:10.892Z,44.80
2023-02-11T06:10:38.262Z,40.95
2023-02-11T06:13:05.501Z,42.45
2023-02-11T06:15:32.639Z,40.40
2023-02-11T06:17:59.788Z,40.58
2023-02-11T06:20:26.952Z,42.80
2023-02-11T06:22:54.029Z,43.60
2023-02-11T06:25:21.207Z,45.35
2023-02-11T06:27:48.369Z,43.65
2023-02-11T06:30:15.557Z,41.50
2023-02-11T06:32:44.939Z,48.47
2023-02-11T06:35:12.868Z,44.85
2023-02-11T06:37:40.413Z,42.45
2023-02-11T06:40:08.016Z,42.42
2023-02-11T06:42:36.237Z,44.65
2023-02-11T06:45:05.995Z,47.17
2023-02-11T06:47:33.176Z,49.63
2023-02-11T06:50:00.290Z,44.42
2023-02-11T06:52:27.371Z,44.78
2023-02-11T06:54:54.486Z,45.05
2023-02-11T06:57:21.617Z,38.53
2023-02-11T06:59:48.742Z,45.67
2023-02-11T07:02:15.896Z,41.38
2023-02-11T07:04:43.342Z,40.58
2023-02-11T07:07:10.492Z,38.97
2023-02-11T07:09:37.855Z,37.83
2023-02-11T07:12:05.145Z,37.50
2023-02-11T07:14:32.289Z,37.92
2023-02-11T07:16:59.466Z,34.28
2023-02-11T07:19:26.587Z,36.20
2023-02-11T07:21:54.242Z,37.45
2023-02-11T07:24:21.469Z,40.55
2023-02-11T07:26:48.528Z,41.67
2023-02-11T07:29:16.520Z,39.75
2023-02-11T07:31:43.731Z,41.90
2023-02-11T07:34:11.462Z,42.47
2023-02-11T07:36:38.587Z,33.47
2023-02-11T07:39:05.696Z,41.03
2023-02-11T07:41:37.358Z,35.42
2023-02-11T07:44:05.039Z,33.58
2023-02-11T07:46:32.249Z,39.20
2023-02-11T07:48:59.404Z,35.63
2023-02-11T07:51:29.925Z,37.80
2023-02-11T07:53:58.212Z,33.85
2023-02-11T07:56:25.643Z,35.95
2023-02-11T07:58:52.840Z,31.05
2023-02-11T08:01:22.531Z,33.50
2023-02-11T08:03:49.936Z,34.55
2023-02-11T08:06:17.806Z,36.08
2023-02-11T08:08:44.922Z,33.45
2023-02-11T08:11:13.418Z,32.88
2023-02-11T08:13:41.021Z,38.83
2023-02-11T08:16:08.531Z,31.67
2023-02-11T08:18:36.173Z,31.23
2023-02-11T08:21:07.184Z,33.70
2023-02-11T08:23:35.005Z,34.40
2023-02-11T08:26:05.773Z,32.75
2023-02-11T08:28:33.046Z,29.25
2023-02-11T08:31:05.210Z,28.02
2023-02-11T08:33:32.278Z,31.33
2023-02-11T08:35:59.958Z,31.75
2023-02-11T08:38:27.148Z,35.80
2023-02-11T08:40:54.296Z,57.38
2023-02-11T08:43:21.379Z,63.38
2023-02-11T08:45:48.835Z,78.68
2023-02-11T08:48:16.201Z,31.88
2023-02-11T08:50:43.501Z,46.55
2023-02-11T08:53:10.598Z,50.70
2023-02-11T08:55:37.659Z,55.22
2023-02-11T08:58:05.015Z,34.25
2023-02-11T09:00:32.192Z,37.63
2023-02-11T09:03:00.281Z,42.10
2023-02-11T09:05:27.656Z,27.83
2023-02-11T09:07:54.711Z,28.40
2023-02-11T09:10:21.869Z,32.25
2023-02-11T09:12:49.018Z,27.23
2023-02-11T09:15:16.128Z,24.63
2023-02-11T09:17:43.389Z,24.20
2023-02-11T09:20:11.471Z,33.65
2023-02-11T09:22:38.609Z,21.52
2023-02-11T09:25:05.917Z,23.88
2023-02-11T09:27:33.038Z,23.25
2023-02-11T09:30:00.166Z,24.13
2023-02-11T09:32:27.308Z,21.77
2023-02-11T09:34:54.494Z,21.63
2023-02-11T09:37:21.618Z,21.45
2023-02-11T09:39:48.810Z,21.45
2023-02-11T09:42:30.353Z,17.20
2023-02-11T09:44:58.022Z,20.58
2023-02-11T09:47:25.181Z,18.92
2023-02-11T09:49:54.526Z,17.73
2023-02-11T09:52:32.861Z,16.40
2023-02-11T09:55:01.212Z,14.32
2023-02-11T09:57:35.427Z,13.57
2023-02-11T10:00:03.613Z,14.80
2023-02-11T10:02:57.192Z,11.60
2023-02-11T10:05:27.685Z,10.02
2023-02-11T10:08:02.008Z,13.23
2023-02-11T10:10:45.790Z,10.32
2023-02-11T10:13:12.943Z,10.98
2023-02-11T10:15:49.148Z,11.65
2023-02-11T10:18:16.311Z,11.38
2023-02-11T10:20:43.517Z,14.90
2023-02-11T10:23:13.577Z,10.95
2023-02-11T10:25:45.502Z,14.70
2023-02-11T10:28:14.886Z,12.10
2023-02-11T10:31:05.291Z,16.52
2023-02-11T10:33:35.659Z,13.25
2023-02-11T10:36:02.851Z,14.95
2023-02-11T10:38:29.994Z,13.98
2023-02-11T10:40:57.170Z,13.63
2023-02-11T10:43:27.192Z,12.55
2023-02-11T10:45:55.437Z,13.27
2023-02-11T10:48:41.457Z,11.93
2023-02-11T10:51:14.272Z,12.73
2023-02-11T10:53:41.617Z,12.00
2023-02-11T10:56:11.436Z,11.55
2023-02-11T10:58:54.991Z,10.60
2023-02-11T11:01:24.866Z,11.57
2023-02-11T11:03:53.289Z,12.27
2023-02-11T11:06:31.582Z,12.90
2023-02-11T11:08:58.959Z,12.60
2023-02-11T11:11:26.929Z,10.43
2023-02-11T11:13:53.982Z,14.02
2023-02-11T11:16:23.084Z,11.90
2023-02-11T11:18:51.368Z,13.57
2023-02-11T11:21:25.708Z,15.00
2023-02-11T11:24:00.132Z,14.48
2023-02-11T11:26:29.200Z,14.18
2023-02-11T11:28:58.388Z,13.43
2023-02-11T11:31:29.013Z,14.90
2023-02-11T11:33:57.263Z,13.60
2023-02-11T11:36:32.000Z,13.30
2023-02-11T11:39:01.118Z,14.43
2023-02-11T11:41:34.733Z,13.43
2023-02-11T11:44:03.306Z,15.32
2023-02-11T11:46:38.538Z,12.68
2023-02-11T11:49:11.099Z,14.35
2023-02-11T11:51:39.828Z,13.68
2023-02-11T11:54:09.390Z,16.38
2023-02-11T11:56:38.727Z,20.83
2023-02-11T11:59:14.112Z,16.88
2023-02-11T12:01:41.364Z,19.13
2023-02-11T12:04:20.123Z,17.17
2023-02-11T12:06:47.230Z,17.65
2023-02-11T12:09:22.070Z,16.00
2023-02-11T12:12:07.710Z,17.40
2023-02-11T12:15:04.379Z,16.67
2023-02-11T12:17:37.327Z,16.67
2023-02-11T12:20:36.680Z,19.77
2023-02-11T12:23:12.259Z,20.10
2023-02-11T12:25:42.159Z,18.00
2023-02-11T12:28:18.166Z,32.25
2023-02-11T12:30:53.970Z,19.25
2023-02-11T12:33:39.890Z,19.45
2023-02-11T12:36:25.708Z,18.60
2023-02-11T12:38:52.798Z,18.77
2023-02-11T12:41:50.411Z,20.42
2023-02-11T12:44:33.262Z,17.23
2023-02-11T12:47:10.073Z,15.80
2023-02-11T12:49:37.107Z,20.38
2023-02-11T12:52:20.774Z,22.05
2023-02-11T12:55:00.849Z,22.52
2023-02-11T12:57:29.819Z,19.42
2023-02-11T12:59:56.913Z,19.33
2023-02-11T13:02:28.793Z,20.73
2023-02-11T13:05:02.235Z,25.63
2023-02-11T13:07:34.088Z,20.08
2023-02-11T13:10:09.861Z,23.40
2023-02-11T13:12:56.363Z,18.73
2023-02-11T13:15:25.889Z,22.95
2023-02-11T13:18:18.736Z,20.60
2023-02-11T13:23:42.490Z,17.63
2023-02-11T13:26:21.701Z,18.05
2023-02-11T13:29:07.550Z,18.55
2023-02-11T13:31:34.735Z,16.58
2023-02-11T13:34:03.818Z,16.73
2023-02-11T13:36:34.014Z,17.25
2023-02-11T13:39:02.709Z,17.63
2023-02-11T13:41:31.459Z,19.80
2023-02-11T13:44:03.584Z,16.45
2023-02-11T13:46:49.854Z,17.63
2023-02-11T13:49:33.700Z,17.85
2023-02-11T13:52:01.395Z,17.27
2023-02-11T13:54:36.185Z,18.40
2023-02-11T13:57:21.671Z,18.00
2023-02-11T13:59:56.436Z,18.85
2023-02-11T14:02:52.696Z,19.52
2023-02-11T14:05:44.108Z,18.73
2023-02-11T14:08:30.130Z,20.35
2023-02-11T14:10:57.202Z,16.65
2023-02-11T14:13:25.379Z,18.20
2023-02-11T14:16:10.623Z,23.17
2023-02-11T14:18:40.565Z,18.95
2023-02-11T14:21:13.069Z,21.02
2023-02-11T14:23:40.518Z,18.92
2023-02-11T14:26:27.856Z,18.17
2023-02-11T14:29:01.575Z,19.30
2023-02-11T14:31:28.806Z,20.95
2023-02-11T14:34:02.231Z,19.08
2023-02-11T14:36:29.379Z,19.02
2023-02-11T14:39:02.407Z,18.77
2023-02-11T14:41:46.792Z,23.75
2023-02-11T14:44:16.096Z,18.48
2023-02-11T14:46:48.006Z,18.85
2023-02-11T14:49:25.215Z,18.90
2023-02-11T14:51:53.342Z,21.00
2023-02-11T14:54:24.824Z,30.60
2023-02-11T14:57:11.139Z,88.13
2023-02-11T14:59:38.319Z,34.95
2023-02-11T15:02:20.386Z,21.05
2023-02-11T15:04:47.529Z,23.30
2023-02-11T15:07:15.400Z,20.95
2023-02-11T15:09:44.360Z,19.95
2023-02-11T15:12:19.948Z,18.85
2023-02-11T15:14:52.348Z,23.20
2023-02-11T15:17:21.681Z,20.98
2023-02-11T15:19:50.673Z,22.58
2023-02-11T15:22:21.309Z,23.02
2023-02-11T15:25:07.731Z,21.08
2023-02-11T15:27:45.183Z,21.98
2023-02-11T15:30:24.924Z,22.95
2023-02-11T15:33:00.034Z,21.65
2023-02-11T15:35:31.679Z,24.45
2023-02-11T15:37:59.549Z,19.73
2023-02-11T15:40:28.224Z,22.58
2023-02-11T15:42:58.513Z,26.75
2023-02-11T15:45:29.998Z,21.23
2023-02-11T15:47:59.752Z,20.95
2023-02-11T15:50:28.136Z,24.80
2023-02-11T15:52:56.122Z,26.60
2023-02-11T15:55:24.584Z,27.85
2023-02-11T15:57:54.530Z,21.17
2023-02-11T16:00:23.390Z,20.60
2023-02-11T16:02:51.114Z,21.88
2023-02-11T16:05:26.179Z,23.05
2023-02-11T16:07:53.371Z,24.65
2023-02-11T16:10:22.723Z,25.33
2023-02-11T16:12:56.107Z,37.63
2023-02-11T16:15:38.090Z,48.33
2023-02-11T16:18:13.230Z,41.83
2023-02-11T16:20:40.528Z,28.02
2023-02-11T16:23:08.262Z,23.88
2023-02-11T16:25:35.841Z,25.30
2023-02-11T16:28:03.107Z,27.10
2023-02-11T16:30:34.060Z,23.08
2023-02-11T16:33:01.536Z,23.20
2023-02-11T16:35:28.688Z,28.85
2023-02-11T16:37:55.750Z,25.95
2023-02-11T16:40:25.668Z,27.27
2023-02-11T16:42:53.389Z,23.60
2023-02-11T16:45:20.584Z,26.50
2023-02-11T16:47:47.725Z,24.05
2023-02-11T16:50:25.418Z,21.85
2023-02-11T16:52:52.750Z,25.48
2023-02-11T16:55:21.891Z,25.85
2023-02-11T16:57:49.647Z,29.45
2023-02-11T17:00:17.543Z,23.05
2023-02-11T17:02:44.850Z,25.88
2023-02-11T17:05:17.437Z,28.90
2023-02-11T17:07:44.530Z,29.35
2023-02-11T17:10:18.872Z,26.52
2023-02-11T17:12:46.245Z,24.77
2023-02-11T17:15:13.328Z,25.63
2023-02-11T17:17:40.468Z,25.35
2023-02-11T17:20:09.438Z,24.88
2023-02-11T17:22:36.579Z,25.42
2023-02-11T17:25:03.733Z,25.08
2023-02-11T17:27:30.877Z,26.77
2023-02-11T17:29:57.985Z,23.33
2023-02-11T17:32:25.312Z,25.42
2023-02-11T17:34:53.535Z,26.42
2023-02-11T17:37:20.674Z,26.10
2023-02-11T17:39:49.885Z,29.10
2023-02-11T17:42:19.133Z,23.15
2023-02-11T17:44:46.386Z,28.55
2023-02-11T17:47:13.531Z,25.05
2023-02-11T17:49:42.062Z,24.40
2023-02-11T17:52:09.360Z,32.67
2023-02-11T17:54:36.597Z,32.13
2023-02-11T17:57:03.704Z,27.58
2023-02-11T17:59:35.319Z,27.40
2023-02-11T18:02:03.133Z,27.27
2023-02-11T18:04:30.335Z,28.75
2023-02-11T18:06:57.833Z,28.25
2023-02-11T18:09:25.615Z,29.02
2023-02-11T18:11:53.120Z,31.83
2023-02-11T18:14:20.944Z,30.63
2023-02-11T18:16:50.655Z,29.13
2023-02-11T18:19:18.115Z,31.20
2023-02-11T18:21:45.553Z,30.05
2023-02-11T18:24:12.675Z,29.33
2023-02-11T18:26:39.947Z,30.05
2023-02-11T18:29:07.287Z,27.67
2023-02-11T18:31:35.399Z,28.85
2023-02-11T18:34:03.249Z,28.58
2023-02-11T18:36:30.386Z,31.08
2023-02-11T18:38:59.077Z,28.85
2023-02-11T18:41:26.304Z,32.22
2023-02-11T18:43:53.600Z,30.50
2023-02-11T18:46:20.772Z,28.63
2023-02-11T18:48:49.304Z,29.13
2023-02-11T18:51:20.549Z,34.00
2023-02-11T18:53:47.835Z,29.15
2023-02-11T18:56:16.355Z,29.65
2023-02-11T18:58:43.791Z,32.97
2023-02-11T19:01:15.761Z,33.72
2023-02-11T19:03:43.132Z,33.65
2023-02-11T19:06:14.666Z,30.17
2023-02-11T19:08:41.807Z,29.02
2023-02-11T19:11:09.105Z,31.23
2023-02-11T19:13:36.183Z,29.98
2023-02-11T19:16:06.193Z,27.27
2023-02-11T19:18:33.890Z,35.47
2023-02-11T19:21:01.081Z,35.65
2023-02-11T19:23:28.204Z,36.55
2023-02-11T19:25:55.292Z,40.15
2023-02-11T19:28:22.454Z,32.58
2023-02-11T19:30:49.577Z,34.90
2023-02-11T19:33:16.863Z,39.85
2023-02-11T19:35:43.972Z,34.47
2023-02-11T19:38:12.733Z,36.72
2023-02-11T19:40:39.862Z,39.40
2023-02-11T19:43:07.006Z,32.25
2023-02-11T19:45:34.149Z,34.95
2023-02-11T19:48:01.317Z,36.50
2023-02-11T19:50:28.642Z,35.53
2023-02-11T19:52:55.818Z,36.60
2023-02-11T19:55:22.988Z,42.35
2023-02-11T19:57:50.105Z,39.58
2023-02-11T20:00:17.676Z,39.08
2023-02-11T20:02:45.035Z,47.33
2023-02-11T20:05:12.222Z,108.47
2023-02-11T20:07:39.318Z,41.65
2023-02-11T20:10:06.822Z,60.50
2023-02-11T20:12:33.899Z,71.68
2023-02-11T20:15:00.991Z,59.33
2023-02-11T20:17:28.111Z,37.28
2023-02-11T20:19:55.260Z,32.60
2023-02-11T20:22:22.402Z,39.30
2023-02-11T20:24:49.567Z,38.83
2023-02-11T20:27:19.063Z,45.90
2023-02-11T20:29:47.263Z,43.85
2023-02-11T20:32:15.323Z,44.88
2023-02-11T20:34:42.599Z,47.58
2023-02-11T20:37:09.811Z,42.47
2023-02-11T20:39:40.839Z,38.88
2023-02-11T20:42:11.696Z,37.63
2023-02-11T20:44:39.367Z,39.15
2023-02-11T20:47:06.529Z,39.30
2023-02-11T20:49:33.722Z,35.85
2023-02-11T20:52:00.840Z,36.53
2023-02-11T20:54:28.525Z,39.22
2023-02-11T20:56:56.874Z,38.53
2023-02-11T20:59:24.459Z,39.35
2023-02-11T21:01:56.000Z,34.90
2023-02-11T21:04:25.242Z,35.65
2023-02-11T21:06:54.198Z,36.58
2023-02-11T21:09:23.020Z,36.63
2023-02-11T21:11:53.905Z,37.55
2023-02-11T21:14:22.246Z,40.75
2023-02-11T21:16:49.655Z,42.55
2023-02-11T21:19:17.005Z,44.35
2023-02-11T21:21:44.174Z,46.83
2023-02-11T21:24:11.859Z,39.15
2023-02-11T21:26:39.367Z,37.33
2023-02-11T21:29:07.014Z,41.65
2023-02-11T21:31:34.931Z,39.58
2023-02-11T21:34:02.727Z,35.97
2023-02-11T21:36:30.209Z,37.90
2023-02-11T21:38:57.611Z,46.22
2023-02-11T21:41:24.969Z,37.65
2023-02-11T21:43:52.621Z,41.72
2023-02-11T21:46:20.405Z,41.30
2023-02-11T21:48:48.103Z,40.63
2023-02-11T21:51:19.751Z,55.35
2023-02-11T21:53:47.108Z,54.05
2023-02-11T21:56:16.125Z,48.50
2023-02-11T21:58:43.695Z,86.60
2023-02-11T22:01:21.940Z,81.30
2023-02-11T22:03:49.345Z,76.43
2023-02-11T22:06:23.672Z,62.33
2023-02-11T22:08:51.270Z,103.63
2023-02-11T22:11:18.411Z,82.97
2023-02-11T22:13:45.750Z,51.42
2023-02-11T22:16:14.565Z,39.78
2023-02-11T22:18:42.134Z,42.55
2023-02-11T22:21:10.632Z,40.50
2023-02-11T22:23:39.146Z,40.55
2023-02-11T22:26:11.258Z,39.70
2023-02-11T22:28:40.511Z,40.13
2023-02-11T22:31:08.626Z,40.08
2023-02-11T22:33:35.841Z,47.50
2023-02-11T22:36:04.475Z,46.58
2023-02-11T22:38:31.982Z,41.85
2023-02-11T22:40:59.901Z,42.08
2023-02-11T22:43:28.169Z,41.60
2023-02-11T22:45:56.439Z,36.22
2023-02-11T22:48:23.918Z,41.55
2023-02-11T22:50:51.035Z,42.53
2023-02-11T22:53:18.151Z,40.00
2023-02-11T22:55:45.268Z,45.05
2023-02-11T22:58:12.431Z,40.53
2023-02-11T23:00:40.791Z,40.13
2023-02-11T23:03:08.635Z,44.60
2023-02-11T23:05:38.675Z,46.25
2023-02-11T23:08:06.092Z,41.17
2023-02-11T23:10:34.622Z,43.20
2023-02-11T23:13:01.760Z,39.45
2023-02-11T23:15:28.903Z,41.38
2023-02-11T23:17:56.003Z,41.70
2023-02-11T23:20:23.152Z,43.55
2023-02-11T23:22:50.381Z,42.55
2023-02-11T23:25:17.585Z,43.13
2023-02-11T23:27:44.706Z,41.00
2023-02-11T23:30:12.151Z,40.78
2023-02-11T23:32:39.908Z,39.83
2023-02-11T23:35:07.165Z,35.92
2023-02-11T23:37:34.348Z,40.58
2023-02-11T23:40:01.502Z,40.50
2023-02-11T23:42:29.195Z,42.38
2023-02-11T23:44:56.301Z,38.40
2023-02-11T23:47:23.426Z,37.53
2023-02-11T23:49:50.526Z,42.97
2023-02-11T23:52:17.822Z,43.40
2023-02-11T23:54:48.113Z,42.72
2023-02-11T23:57:15.289Z,42.88
2023-02-11T23:59:43.820Z,41.78
